Time;durP1;ratioP1;P1;durP2;ratioP2;P2;SDS_P1;SDS_P2;PMS_P1;PMS_P2;Temp;Humidity;BMP_temperature;BMP_pressure;BME280_temperature;BME280_humidity;BME280_pressure;Samples;Min_cycle;Max_cycle;Signal;HPM_P1;HPM_P2
2023/04/16 00:02:00;;;;;;;12.03;8.43;;;;;;;;;;5028564;28;20191;-65
2023/04/16 00:04:27;;;;;;;10.73;7.57;;;;;;;;;;5029217;28;20210;-65
2023/04/16 00:06:54;;;;;;;9.97;7.67;;;;;;;;;;5028326;28;20211;-65
2023/04/16 00:09:20;;;;;;;14.20;9.13;;;;;;;;;;5029352;28;20203;-66
2023/04/16 00:11:47;;;;;;;9.97;7.40;;;;;;;;;;5029276;28;20593;-65
2023/04/16 00:14:14;;;;;;;11.20;8.10;;;;;;;;;;5028303;28;20207;-65
2023/04/16 00:16:41;;;;;;;9.87;7.87;;;;;;;;;;5029389;28;20186;-65
2023/04/16 00:19:07;;;;;;;11.97;8.27;;;;;;;;;;5027667;28;20214;-67
2023/04/16 00:21:34;;;;;;;13.43;8.77;;;;;;;;;;5028552;28;20194;-65
2023/04/16 00:24:01;;;;;;;15.70;10.67;;;;;;;;;;5028151;28;20548;-66
2023/04/16 00:26:28;;;;;;;18.23;13.80;;;;;;;;;;5028951;28;20187;-66
2023/04/16 00:28:54;;;;;;;12.20;9.43;;;;;;;;;;5028187;28;20279;-65
2023/04/16 00:31:27;;;;;;;10.73;8.40;;;;;;;;;;5028564;28;20274;-65
2023/04/16 00:33:55;;;;;;;13.23;11.13;;;;;;;;;;5028560;28;20203;-65
2023/04/16 00:36:25;;;;;;;10.13;8.43;;;;;;;;;;5011112;28;20187;-65
2023/04/16 00:38:52;;;;;;;12.50;8.57;;;;;;;;;;5028437;28;20546;-65
2023/04/16 00:41:19;;;;;;;11.73;9.90;;;;;;;;;;5028072;28;20218;-65
2023/04/16 00:43:50;;;;;;;16.63;12.60;;;;;;;;;;5013015;28;20191;-65
2023/04/16 00:46:20;;;;;;;10.23;8.57;;;;;;;;;;5028576;28;20195;-65
2023/04/16 00:48:47;;;;;;;10.70;7.80;;;;;;;;;;5028373;28;20203;-65
2023/04/16 00:51:14;;;;;;;11.33;9.00;;;;;;;;;;5028632;28;20211;-65
2023/04/16 00:53:42;;;;;;;9.63;7.47;;;;;;;;;;5010613;28;20208;-65
2023/04/16 00:56:09;;;;;;;11.77;8.00;;;;;;;;;;5027499;28;20658;-65
2023/04/16 00:58:35;;;;;;;9.80;7.80;;;;;;;;;;5011150;28;20279;-65
2023/04/16 01:01:02;;;;;;;10.77;7.57;;;;;;;;;;5028210;28;20215;-65
2023/04/16 01:03:39;;;;;;;8.30;7.13;;;;;;;;;;5028383;28;20192;-65
2023/04/16 01:06:06;;;;;;;10.43;7.50;;;;;;;;;;5028559;28;20562;-66
2023/04/16 01:08:33;;;;;;;10.97;8.63;;;;;;;;;;5028435;28;20199;-65
2023/04/16 01:11:00;;;;;;;8.83;7.60;;;;;;;;;;5030179;28;20296;-65
2023/04/16 01:13:26;;;;;;;8.93;7.77;;;;;;;;;;5010101;28;20187;-65
2023/04/16 01:15:54;;;;;;;12.67;8.83;;;;;;;;;;5010786;28;20218;-65
2023/04/16 01:18:21;;;;;;;10.63;7.57;;;;;;;;;;5020648;28;20211;-65
2023/04/16 01:20:48;;;;;;;8.93;7.77;;;;;;;;;;5010738;28;20229;-65
2023/04/16 01:23:15;;;;;;;9.77;7.47;;;;;;;;;;5010151;28;20197;-65
2023/04/16 01:25:42;;;;;;;12.70;8.40;;;;;;;;;;5028114;28;20207;-65
2023/04/16 01:28:09;;;;;;;10.80;8.60;;;;;;;;;;5010173;28;20196;-65
2023/04/16 01:30:36;;;;;;;10.90;8.53;;;;;;;;;;5028186;28;20282;-65
2023/04/16 01:33:19;;;;;;;10.47;9.00;;;;;;;;;;5010748;28;20203;-65
2023/04/16 01:35:46;;;;;;;12.13;9.20;;;;;;;;;;5010370;28;20257;-65
2023/04/16 01:38:14;;;;;;;11.90;9.10;;;;;;;;;;5010112;28;20199;-65
2023/04/16 01:40:41;;;;;;;11.17;8.23;;;;;;;;;;5027566;28;20259;-65
2023/04/16 02:15:15;;;;;;;13.43;9.60;;;;;;;;;;5035008;28;20226;-65
2023/04/16 02:17:45;;;;;;;14.23;10.17;;;;;;;;;;5009648;28;20195;-65
2023/04/16 02:20:12;;;;;;;13.27;10.07;;;;;;;;;;5009911;28;20578;-65
2023/04/16 02:22:49;;;;;;;15.50;9.87;;;;;;;;;;5027604;28;20204;-65
2023/04/16 02:25:18;;;;;;;12.83;10.27;;;;;;;;;;5010813;28;20672;-65
2023/04/16 02:27:45;;;;;;;11.30;9.33;;;;;;;;;;5016302;28;20794;-65
2023/04/16 02:30:34;;;;;;;13.30;9.77;;;;;;;;;;5022369;28;20752;-65
2023/04/16 02:33:04;;;;;;;12.70;10.20;;;;;;;;;;5013258;28;20284;-65
2023/04/16 02:35:31;;;;;;;12.63;10.23;;;;;;;;;;5012700;28;20199;-65
2023/04/16 02:37:58;;;;;;;13.13;10.27;;;;;;;;;;5030745;28;20219;-65
2023/04/16 02:40:25;;;;;;;13.20;10.37;;;;;;;;;;5042446;28;20226;-65
2023/04/16 02:42:52;;;;;;;12.87;9.97;;;;;;;;;;5031622;28;20200;-65
2023/04/16 02:45:19;;;;;;;14.70;10.50;;;;;;;;;;5031024;28;20196;-65
2023/04/16 02:47:47;;;;;;;15.30;10.97;;;;;;;;;;5013140;28;20202;-65
2023/04/16 02:50:14;;;;;;;14.93;10.70;;;;;;;;;;5030654;28;20277;-65
2023/04/16 02:52:41;;;;;;;12.33;9.47;;;;;;;;;;5030535;28;20204;-65
2023/04/16 02:55:08;;;;;;;14.57;10.97;;;;;;;;;;5030447;28;20202;-65
2023/04/16 02:57:34;;;;;;;13.43;10.53;;;;;;;;;;5030913;28;20542;-65
2023/04/16 03:00:03;;;;;;;12.77;10.40;;;;;;;;;;5025082;28;20191;-65
2023/04/16 03:02:30;;;;;;;14.77;10.93;;;;;;;;;;5030369;28;20199;-65
2023/04/16 03:04:57;;;;;;;13.03;10.60;;;;;;;;;;5012809;28;20199;-66
2023/04/16 03:07:23;;;;;;;14.07;11.30;;;;;;;;;;5030402;28;20245;-65
2023/04/16 03:09:50;;;;;;;14.33;10.70;;;;;;;;;;5030349;28;20209;-65
2023/04/16 03:12:17;;;;;;;15.50;11.50;;;;;;;;;;5030799;28;20705;-65
2023/04/16 03:14:44;;;;;;;15.30;11.27;;;;;;;;;;5030010;28;20187;-65
2023/04/16 03:17:11;;;;;;;15.33;12.03;;;;;;;;;;5012266;28;20990;-65
2023/04/16 03:19:38;;;;;;;13.87;11.47;;;;;;;;;;5012525;28;20294;-65
2023/04/16 03:22:08;;;;;;;14.07;11.50;;;;;;;;;;5029004;28;20202;-65
2023/04/16 03:24:37;;;;;;;18.03;11.87;;;;;;;;;;5029722;28;20215;-65
2023/04/16 03:27:04;;;;;;;15.40;11.27;;;;;;;;;;5029869;28;20737;-65
2023/04/16 03:29:31;;;;;;;16.10;11.70;;;;;;;;;;5011135;28;20198;-65
2023/04/16 03:31:59;;;;;;;15.40;11.73;;;;;;;;;;5029639;28;20215;-65
2023/04/16 03:34:25;;;;;;;14.73;11.60;;;;;;;;;;5011745;28;20231;-65
2023/04/16 03:36:52;;;;;;;14.80;11.43;;;;;;;;;;5029239;28;20184;-65
2023/04/16 03:39:19;;;;;;;16.37;12.40;;;;;;;;;;5029628;28;20306;-65
2023/04/16 03:41:46;;;;;;;13.67;10.83;;;;;;;;;;5011502;28;20214;-65
2023/04/16 03:44:13;;;;;;;16.63;12.17;;;;;;;;;;5011525;28;20195;-65
2023/04/16 03:46:40;;;;;;;15.63;11.60;;;;;;;;;;5011920;28;20294;-66
2023/04/16 03:49:07;;;;;;;15.90;12.13;;;;;;;;;;4994876;28;20733;-63
2023/04/16 03:51:34;;;;;;;15.23;11.80;;;;;;;;;;5030043;28;20211;-63
2023/04/16 03:54:01;;;;;;;15.90;12.03;;;;;;;;;;5029288;28;20825;-63
2023/04/16 03:56:28;;;;;;;15.50;11.70;;;;;;;;;;5011580;28;20284;-63
2023/04/16 03:58:55;;;;;;;16.83;12.23;;;;;;;;;;5011588;28;20206;-63
2023/04/16 04:01:22;;;;;;;16.97;12.20;;;;;;;;;;4994714;28;20570;-67
2023/04/16 04:03:50;;;;;;;16.83;11.50;;;;;;;;;;4991890;28;20299;-64
2023/04/16 04:06:17;;;;;;;17.93;12.97;;;;;;;;;;5009911;28;20199;-64
2023/04/16 04:08:43;;;;;;;16.10;11.83;;;;;;;;;;4992204;28;20286;-64
2023/04/16 04:11:12;;;;;;;15.77;12.30;;;;;;;;;;4991776;28;20309;-64
2023/04/16 04:13:40;;;;;;;16.17;11.30;;;;;;;;;;4991956;28;20235;-63
2023/04/16 04:16:06;;;;;;;16.47;12.10;;;;;;;;;;5010732;28;20314;-63
2023/04/16 04:18:33;;;;;;;15.30;12.03;;;;;;;;;;5011050;28;20249;-64
2023/04/16 04:21:03;;;;;;;15.67;12.20;;;;;;;;;;5010553;28;20196;-64
2023/04/16 04:23:31;;;;;;;15.87;12.33;;;;;;;;;;5029056;28;20187;-64
2023/04/16 04:25:58;;;;;;;16.37;12.33;;;;;;;;;;5028921;28;20202;-64
2023/04/16 04:28:25;;;;;;;16.87;12.37;;;;;;;;;;5028197;28;20675;-64
2023/04/16 04:30:53;;;;;;;17.10;11.90;;;;;;;;;;5010373;28;20559;-64
2023/04/16 04:33:20;;;;;;;16.97;12.10;;;;;;;;;;5027809;28;20207;-64
2023/04/16 04:35:46;;;;;;;17.57;13.17;;;;;;;;;;5028183;28;20202;-64
2023/04/16 04:38:18;;;;;;;17.63;12.53;;;;;;;;;;5010489;28;20254;-63
2023/04/16 04:40:47;;;;;;;17.23;12.83;;;;;;;;;;5011704;28;20281;-64
2023/04/16 04:43:18;;;;;;;17.83;12.70;;;;;;;;;;5005584;28;20220;-64
2023/04/16 04:45:45;;;;;;;16.27;11.90;;;;;;;;;;4990688;28;20219;-65
2023/04/16 04:48:12;;;;;;;18.77;12.53;;;;;;;;;;4993239;28;22441;-63
2023/04/16 04:50:40;;;;;;;14.87;11.53;;;;;;;;;;5010311;28;20207;-63
2023/04/16 04:53:10;;;;;;;16.77;11.60;;;;;;;;;;5010659;28;20570;-63
2023/04/16 04:55:37;;;;;;;15.87;12.10;;;;;;;;;;5028449;28;20196;-64
2023/04/16 04:58:05;;;;;;;14.43;11.80;;;;;;;;;;5010565;28;20669;-64
2023/04/16 05:00:32;;;;;;;15.60;11.47;;;;;;;;;;5010463;28;20203;-64
2023/04/16 05:03:02;;;;;;;16.43;11.73;;;;;;;;;;5013922;28;20194;-64
2023/04/16 05:05:29;;;;;;;16.40;11.27;;;;;;;;;;4994484;28;20249;-64
2023/04/16 05:07:55;;;;;;;16.83;11.70;;;;;;;;;;5027574;28;20249;-64
2023/04/16 05:10:22;;;;;;;16.73;12.50;;;;;;;;;;5029738;28;20222;-64
2023/04/16 05:12:49;;;;;;;16.30;12.47;;;;;;;;;;5031413;28;20223;-64
2023/04/16 05:15:16;;;;;;;17.10;12.90;;;;;;;;;;5028261;28;20198;-64
2023/04/16 05:17:43;;;;;;;17.70;12.90;;;;;;;;;;5027833;28;20188;-64
2023/04/16 05:20:09;;;;;;;18.20;12.57;;;;;;;;;;5027725;28;20203;-64
2023/04/16 05:22:36;;;;;;;17.37;12.97;;;;;;;;;;5030566;28;20214;-64
2023/04/16 05:25:03;;;;;;;16.67;12.57;;;;;;;;;;5027387;28;20276;-64
2023/04/16 05:27:30;;;;;;;15.37;11.50;;;;;;;;;;5027706;28;20226;-65
2023/04/16 05:29:56;;;;;;;15.63;11.67;;;;;;;;;;5008151;28;20191;-64
2023/04/16 05:32:26;;;;;;;15.07;11.40;;;;;;;;;;5008949;28;20211;-64
2023/04/16 05:34:53;;;;;;;14.67;11.20;;;;;;;;;;5027198;28;20215;-64
2023/04/16 05:37:20;;;;;;;14.80;11.43;;;;;;;;;;5029592;28;20199;-64
2023/04/16 05:39:46;;;;;;;15.50;11.90;;;;;;;;;;5027385;28;20226;-64
2023/04/16 05:42:13;;;;;;;12.77;10.43;;;;;;;;;;5028339;28;20191;-64
2023/04/16 05:44:40;;;;;;;14.37;11.13;;;;;;;;;;5026721;28;20225;-65
2023/04/16 05:47:08;;;;;;;16.27;11.40;;;;;;;;;;5026558;28;20223;-64
2023/04/16 05:49:36;;;;;;;14.87;11.43;;;;;;;;;;5027178;28;20647;-65
2023/04/16 05:52:06;;;;;;;16.73;11.73;;;;;;;;;;5026790;28;20301;-65
2023/04/16 05:54:33;;;;;;;15.17;11.63;;;;;;;;;;5012762;28;20206;-65
2023/04/16 05:57:00;;;;;;;15.73;12.27;;;;;;;;;;5029675;28;20191;-65
2023/04/16 05:59:29;;;;;;;16.23;11.80;;;;;;;;;;5033264;28;20207;-65
2023/04/16 06:01:56;;;;;;;17.60;12.33;;;;;;;;;;5042826;28;20261;-65
2023/04/16 06:04:24;;;;;;;17.50;13.30;;;;;;;;;;5030235;28;20180;-65
2023/04/16 06:06:50;;;;;;;17.27;12.50;;;;;;;;;;5045038;28;20199;-66
2023/04/16 06:09:17;;;;;;;16.43;12.50;;;;;;;;;;5038727;28;20202;-65
2023/04/16 06:11:44;;;;;;;16.73;13.47;;;;;;;;;;5038287;28;20211;-64
2023/04/16 06:14:11;;;;;;;20.10;12.43;;;;;;;;;;5033836;28;20202;-64
2023/04/16 06:16:38;;;;;;;16.80;12.23;;;;;;;;;;5033334;28;20206;-64
2023/04/16 06:19:04;;;;;;;18.37;12.20;;;;;;;;;;5036502;28;20195;-64
2023/04/16 06:21:31;;;;;;;18.03;12.70;;;;;;;;;;5033949;28;20203;-64
2023/04/16 06:23:58;;;;;;;17.80;12.30;;;;;;;;;;5032044;28;20623;-64
2023/04/16 06:26:24;;;;;;;17.30;12.53;;;;;;;;;;5033137;28;20196;-64
2023/04/16 06:28:51;;;;;;;16.80;12.70;;;;;;;;;;5033242;28;20222;-64
2023/04/16 06:31:18;;;;;;;18.33;12.13;;;;;;;;;;5033897;28;20207;-65
2023/04/16 06:33:44;;;;;;;17.40;12.57;;;;;;;;;;5034033;28;20188;-64
2023/04/16 06:36:11;;;;;;;16.07;12.43;;;;;;;;;;5033364;28;20191;-64
2023/04/16 06:38:38;;;;;;;17.67;12.40;;;;;;;;;;5032313;28;20200;-64
2023/04/16 06:41:04;;;;;;;16.70;13.00;;;;;;;;;;5033985;28;20226;-64
2023/04/16 06:43:32;;;;;;;17.73;13.00;;;;;;;;;;5033945;28;20243;-65
2023/04/16 06:45:59;;;;;;;18.13;14.07;;;;;;;;;;5034267;28;20191;-64
2023/04/16 06:48:27;;;;;;;19.23;12.83;;;;;;;;;;5033873;28;20184;-64
2023/04/16 06:50:54;;;;;;;15.77;11.60;;;;;;;;;;5034016;28;20219;-64
2023/04/16 06:53:20;;;;;;;16.50;12.33;;;;;;;;;;5016369;28;20220;-63
2023/04/16 06:55:47;;;;;;;16.70;11.87;;;;;;;;;;5016431;28;20532;-64
2023/04/16 06:58:14;;;;;;;15.03;10.80;;;;;;;;;;5033496;28;20234;-64
2023/04/16 07:00:40;;;;;;;14.50;10.80;;;;;;;;;;5021561;28;20271;-63
2023/04/16 07:03:07;;;;;;;14.97;11.50;;;;;;;;;;5032760;28;20242;-64
2023/04/16 07:05:34;;;;;;;13.73;11.23;;;;;;;;;;5033077;28;20200;-64
2023/04/16 07:08:01;;;;;;;15.00;11.80;;;;;;;;;;5033459;28;20192;-64
2023/04/16 07:10:27;;;;;;;15.87;11.80;;;;;;;;;;5033423;28;20266;-64
2023/04/16 07:12:54;;;;;;;13.90;10.73;;;;;;;;;;5031923;28;20242;-62
2023/04/16 07:15:21;;;;;;;14.10;11.37;;;;;;;;;;5031920;28;20242;-64
2023/04/16 07:17:48;;;;;;;14.73;11.13;;;;;;;;;;5033799;28;20298;-63
2023/04/16 07:20:15;;;;;;;13.87;10.77;;;;;;;;;;5032743;28;20191;-64
2023/04/16 07:22:42;;;;;;;16.43;12.20;;;;;;;;;;5032399;28;20190;-64
2023/04/16 07:25:09;;;;;;;17.07;11.80;;;;;;;;;;5033489;28;20265;-64
2023/04/16 07:27:35;;;;;;;18.90;12.70;;;;;;;;;;5014207;28;20249;-64
2023/04/16 07:30:02;;;;;;;15.93;11.80;;;;;;;;;;5013492;28;20190;-65
2023/04/16 07:32:30;;;;;;;14.60;11.03;;;;;;;;;;5032094;28;20242;-64
2023/04/16 07:34:57;;;;;;;15.00;10.90;;;;;;;;;;5015121;28;20199;-64
2023/04/16 07:37:24;;;;;;;15.00;10.67;;;;;;;;;;5032781;28;20536;-64
2023/04/16 07:39:51;;;;;;;13.77;10.63;;;;;;;;;;5032119;28;20223;-64
2023/04/16 07:42:18;;;;;;;12.10;9.50;;;;;;;;;;5032024;28;20703;-64
2023/04/16 07:44:45;;;;;;;11.70;9.60;;;;;;;;;;5030714;28;20226;-64
2023/04/16 07:47:12;;;;;;;12.20;9.80;;;;;;;;;;5020643;28;20188;-64
2023/04/16 07:49:39;;;;;;;12.63;9.40;;;;;;;;;;5032173;28;20199;-64
2023/04/16 07:52:06;;;;;;;12.50;9.87;;;;;;;;;;5031208;28;20685;-65
2023/04/16 07:54:33;;;;;;;12.67;9.53;;;;;;;;;;4997684;28;20196;-65
2023/04/16 07:57:00;;;;;;;11.30;8.83;;;;;;;;;;5031330;28;20183;-64
2023/04/16 07:59:27;;;;;;;11.70;8.37;;;;;;;;;;5030688;28;20190;-65
2023/04/16 08:01:55;;;;;;;12.37;9.80;;;;;;;;;;5014091;28;20218;-65
2023/04/16 08:04:23;;;;;;;10.83;8.73;;;;;;;;;;5031914;28;20211;-65
2023/04/16 08:06:51;;;;;;;7.90;7.07;;;;;;;;;;5031892;28;20219;-65
2023/04/16 08:09:19;;;;;;;11.13;8.87;;;;;;;;;;5013887;28;20191;-65
2023/04/16 08:11:48;;;;;;;7.77;6.97;;;;;;;;;;5032549;28;20219;-65
2023/04/16 08:14:15;;;;;;;8.97;7.50;;;;;;;;;;5015264;28;20187;-65
2023/04/16 08:16:43;;;;;;;7.43;6.43;;;;;;;;;;5010275;28;20235;-65
2023/04/16 08:19:09;;;;;;;7.57;6.33;;;;;;;;;;5036427;28;20194;-65
2023/04/16 08:21:37;;;;;;;7.20;5.80;;;;;;;;;;5037928;28;20202;-66
2023/04/16 08:24:03;;;;;;;6.63;5.60;;;;;;;;;;5025510;28;20257;-66
2023/04/16 08:26:30;;;;;;;7.10;5.50;;;;;;;;;;5026955;28;20247;-66
2023/04/16 08:28:57;;;;;;;8.53;5.97;;;;;;;;;;5031426;28;20195;-66
2023/04/16 08:31:27;;;;;;;6.00;5.30;;;;;;;;;;5039832;28;20207;-66
2023/04/16 08:33:53;;;;;;;7.97;6.13;;;;;;;;;;5026985;28;20222;-65
2023/04/16 08:36:21;;;;;;;9.27;6.47;;;;;;;;;;5026885;28;20247;-65
2023/04/16 08:38:53;;;;;;;8.20;5.97;;;;;;;;;;5021341;28;20201;-66
2023/04/16 08:41:20;;;;;;;5.50;4.77;;;;;;;;;;5034057;28;20202;-67
2023/04/16 08:43:47;;;;;;;7.10;5.07;;;;;;;;;;5026389;28;20195;-67
2023/04/16 08:46:14;;;;;;;6.80;5.53;;;;;;;;;;5025260;28;20290;-66
2023/04/16 08:48:42;;;;;;;6.03;5.43;;;;;;;;;;5036870;28;20253;-66
2023/04/16 08:51:09;;;;;;;5.17;4.53;;;;;;;;;;5008941;28;20203;-66
2023/04/16 08:53:48;;;;;;;6.60;4.30;;;;;;;;;;5013746;28;20190;-65
2023/04/16 08:56:14;;;;;;;3.87;3.47;;;;;;;;;;5026419;28;20226;-66
2023/04/16 08:58:41;;;;;;;3.63;3.30;;;;;;;;;;5015857;28;20305;-68
2023/04/16 09:01:09;;;;;;;4.00;3.60;;;;;;;;;;5025893;28;20589;-69
2023/04/16 09:03:36;;;;;;;4.90;3.50;;;;;;;;;;5026086;28;20279;-66
2023/04/16 09:06:05;;;;;;;5.63;3.90;;;;;;;;;;5008602;28;20203;-68
2023/04/16 09:08:31;;;;;;;4.77;3.90;;;;;;;;;;5033384;28;20345;-68
2023/04/16 09:10:58;;;;;;;4.00;3.60;;;;;;;;;;5025662;28;20253;-68
2023/04/16 09:13:25;;;;;;;4.10;3.70;;;;;;;;;;5025410;28;20221;-67
2023/04/16 09:15:52;;;;;;;4.20;3.30;;;;;;;;;;5038197;28;20202;-69
2023/04/16 09:18:23;;;;;;;4.97;4.20;;;;;;;;;;5015579;28;20573;-69
2023/04/16 09:20:50;;;;;;;4.70;3.87;;;;;;;;;;5027284;28;20191;-69
2023/04/16 09:23:17;;;;;;;6.83;5.07;;;;;;;;;;5006789;28;20211;-71
2023/04/16 09:25:47;;;;;;;3.30;3.00;;;;;;;;;;5014502;28;20202;-71
2023/04/16 09:28:34;;;;;;;3.10;2.80;;;;;;;;;;5035027;28;20242;-70
2023/04/16 09:31:12;;;;;;;6.90;4.63;;;;;;;;;;5030694;28;21010;-68
2023/04/16 09:33:39;;;;;;;4.40;3.83;;;;;;;;;;5006626;28;20257;-68
2023/04/16 09:36:06;;;;;;;4.63;3.80;;;;;;;;;;5029731;28;20195;-69
2023/04/16 09:38:49;;;;;;;4.80;4.17;;;;;;;;;;5031108;28;20199;-67
2023/04/16 09:41:16;;;;;;;3.47;3.17;;;;;;;;;;5012102;28;20192;-70
2023/04/16 09:43:56;;;;;;;5.40;4.20;;;;;;;;;;5012725;28;20199;-68
2023/04/16 09:46:34;;;;;;;3.97;3.33;;;;;;;;;;4993646;28;20227;-69
2023/04/16 09:49:04;;;;;;;4.00;3.60;;;;;;;;;;4994579;28;20953;-68
2023/04/16 09:51:35;;;;;;;6.30;4.10;;;;;;;;;;5011676;28;20312;-68
2023/04/16 09:54:03;;;;;;;3.20;2.80;;;;;;;;;;5010378;28;20191;-69
2023/04/16 09:56:30;;;;;;;3.60;3.00;;;;;;;;;;5011348;28;20682;-68
2023/04/16 09:59:01;;;;;;;3.30;3.00;;;;;;;;;;5010392;28;20196;-69
2023/04/16 10:01:28;;;;;;;3.47;2.50;;;;;;;;;;5012402;28;20184;-68
2023/04/16 10:03:58;;;;;;;4.10;2.73;;;;;;;;;;4992648;28;20199;-66
2023/04/16 10:06:26;;;;;;;3.47;2.80;;;;;;;;;;5004514;28;20610;-70
2023/04/16 10:08:56;;;;;;;3.00;2.70;;;;;;;;;;5007367;28;20188;-70
2023/04/16 10:11:23;;;;;;;3.20;2.43;;;;;;;;;;5011537;28;20280;-69
2023/04/16 10:13:49;;;;;;;2.73;2.53;;;;;;;;;;5011144;28;20290;-68
2023/04/16 10:16:17;;;;;;;3.30;3.00;;;;;;;;;;4992346;28;20770;-69
2023/04/16 10:18:44;;;;;;;3.00;2.70;;;;;;;;;;5009682;28;20275;-70
2023/04/16 10:21:11;;;;;;;4.17;3.33;;;;;;;;;;4998880;28;20722;-69
2023/04/16 10:23:38;;;;;;;3.50;2.87;;;;;;;;;;5004540;28;20189;-68
2023/04/16 10:26:05;;;;;;;3.70;3.30;;;;;;;;;;5017871;28;20184;-69
2023/04/16 10:28:34;;;;;;;6.33;4.40;;;;;;;;;;5014346;28;20188;-68
2023/04/16 10:31:01;;;;;;;3.80;3.43;;;;;;;;;;5010257;28;20204;-70
2023/04/16 10:33:32;;;;;;;3.80;3.37;;;;;;;;;;4997517;28;20292;-69
2023/04/16 10:36:08;;;;;;;4.60;3.50;;;;;;;;;;4995735;28;20303;-71
2023/04/16 10:38:39;;;;;;;6.00;4.30;;;;;;;;;;4994800;28;20214;-69
2023/04/16 10:41:08;;;;;;;3.97;3.57;;;;;;;;;;5026311;28;20938;-68
2023/04/16 10:43:58;;;;;;;4.43;3.27;;;;;;;;;;5035869;28;20183;-67
2023/04/16 10:46:25;;;;;;;8.73;5.00;;;;;;;;;;5034489;28;20279;-68
2023/04/16 10:48:53;;;;;;;5.00;3.33;;;;;;;;;;5029728;28;20176;-67
2023/04/16 10:51:23;;;;;;;6.37;4.17;;;;;;;;;;5030669;28;20196;-69
2023/04/16 10:53:50;;;;;;;4.37;3.63;;;;;;;;;;5029274;28;20233;-70
2023/04/16 10:56:22;;;;;;;4.30;3.80;;;;;;;;;;5012350;28;20176;-68
2023/04/16 10:58:49;;;;;;;6.43;4.67;;;;;;;;;;5038835;28;20274;-69
2023/04/16 11:01:17;;;;;;;8.97;5.67;;;;;;;;;;5042588;28;20242;-68
2023/04/16 11:03:47;;;;;;;6.40;4.37;;;;;;;;;;5003262;28;20919;-69
2023/04/16 11:06:16;;;;;;;6.10;4.93;;;;;;;;;;5022532;28;20203;-68
2023/04/16 11:08:44;;;;;;;6.07;4.33;;;;;;;;;;5027928;28;20310;-68
2023/04/16 11:11:20;;;;;;;4.77;4.20;;;;;;;;;;5022035;28;20871;-69
2023/04/16 11:13:47;;;;;;;4.57;4.07;;;;;;;;;;5031776;28;20211;-68
2023/04/16 11:16:15;;;;;;;5.63;4.10;;;;;;;;;;5022863;28;20198;-68
2023/04/16 11:18:43;;;;;;;5.47;4.50;;;;;;;;;;5026391;28;20219;-72
2023/04/16 11:21:17;;;;;;;6.60;4.83;;;;;;;;;;5017052;28;20202;-73
2023/04/16 11:23:51;;;;;;;6.60;5.17;;;;;;;;;;5010444;28;20215;-68
2023/04/16 11:26:25;;;;;;;6.87;5.40;;;;;;;;;;5028028;28;20301;-70
2023/04/16 11:28:52;;;;;;;5.33;4.53;;;;;;;;;;5004973;28;20219;-68
2023/04/16 11:31:19;;;;;;;5.87;4.20;;;;;;;;;;5023668;28;20188;-70
2023/04/16 11:33:48;;;;;;;4.80;3.97;;;;;;;;;;5001151;28;20232;-67
2023/04/16 11:36:15;;;;;;;4.50;4.00;;;;;;;;;;5027531;28;20198;-68
2023/04/16 11:38:42;;;;;;;6.23;4.33;;;;;;;;;;5008999;28;20199;-71
2023/04/16 11:41:09;;;;;;;5.83;4.50;;;;;;;;;;5029290;28;20226;-67
2023/04/16 11:43:37;;;;;;;5.87;4.50;;;;;;;;;;5026927;28;20195;-68
2023/04/16 11:46:05;;;;;;;4.67;4.17;;;;;;;;;;5008575;28;20259;-69
2023/04/16 11:48:50;;;;;;;5.27;4.27;;;;;;;;;;5027576;28;20652;-68
2023/04/16 11:51:17;;;;;;;16.60;10.53;;;;;;;;;;5026622;28;20198;-69
2023/04/16 11:53:49;;;;;;;26.53;13.57;;;;;;;;;;5008793;28;20222;-68
2023/04/16 11:56:29;;;;;;;5.50;4.80;;;;;;;;;;5027132;28;20249;-71
2023/04/16 11:59:15;;;;;;;17.97;16.13;;;;;;;;;;5026762;28;20196;-67
2023/04/16 12:01:46;;;;;;;11.57;9.90;;;;;;;;;;5026588;28;20192;-68
2023/04/16 12:04:19;;;;;;;5.30;4.50;;;;;;;;;;5028455;28;20196;-69
2023/04/16 12:07:06;;;;;;;6.63;5.90;;;;;;;;;;5025431;28;20184;-68
2023/04/16 12:09:34;;;;;;;7.13;5.13;;;;;;;;;;5033484;28;20191;-69
2023/04/16 12:12:05;;;;;;;4.67;4.27;;;;;;;;;;5021240;28;20321;-69
2023/04/16 12:14:32;;;;;;;5.90;4.67;;;;;;;;;;5025955;28;21451;-68
2023/04/16 12:17:21;;;;;;;6.20;5.07;;;;;;;;;;5027207;28;20202;-69
2023/04/16 12:19:51;;;;;;;7.70;6.37;;;;;;;;;;5008801;28;20187;-68
2023/04/16 12:22:26;;;;;;;6.73;5.67;;;;;;;;;;5029757;28;20198;-69
2023/04/16 12:25:03;;;;;;;7.33;6.40;;;;;;;;;;5025418;28;20199;-69
2023/04/16 12:27:50;;;;;;;9.47;7.73;;;;;;;;;;5007982;28;20654;-68
2023/04/16 12:30:21;;;;;;;9.47;7.13;;;;;;;;;;5024308;28;20192;-68
2023/04/16 12:33:07;;;;;;;6.40;5.50;;;;;;;;;;5015337;28;20238;-68
2023/04/16 12:35:34;;;;;;;6.77;5.80;;;;;;;;;;5026594;28;20183;-69
2023/04/16 12:38:02;;;;;;;7.63;5.70;;;;;;;;;;5029650;28;20198;-69
2023/04/16 12:40:29;;;;;;;7.80;7.00;;;;;;;;;;5023893;28;20231;-69
2023/04/16 12:42:56;;;;;;;7.20;6.40;;;;;;;;;;5023782;28;20183;-69
2023/04/16 12:45:23;;;;;;;7.83;6.73;;;;;;;;;;5025730;28;20203;-70
2023/04/16 12:47:50;;;;;;;9.30;7.60;;;;;;;;;;5026024;28;20199;-68
2023/04/16 12:50:17;;;;;;;7.80;7.00;;;;;;;;;;5026584;28;20250;-68
2023/04/16 12:52:44;;;;;;;10.33;7.20;;;;;;;;;;5025979;28;20282;-69
2023/04/16 12:55:12;;;;;;;9.90;7.43;;;;;;;;;;5026861;28;20992;-69
2023/04/16 12:57:39;;;;;;;9.60;7.13;;;;;;;;;;5008809;28;20192;-72
2023/04/16 13:00:09;;;;;;;11.10;7.43;;;;;;;;;;5007831;28;21044;-69
2023/04/16 13:02:37;;;;;;;8.63;7.03;;;;;;;;;;5025426;28;20702;-70
2023/04/16 13:05:04;;;;;;;8.23;7.43;;;;;;;;;;5009687;28;20267;-69
2023/04/16 13:07:32;;;;;;;8.87;6.97;;;;;;;;;;5025973;28;20217;-68
2023/04/16 13:09:59;;;;;;;8.53;5.97;;;;;;;;;;5029719;28;20230;-70
2023/04/16 13:12:27;;;;;;;7.63;6.00;;;;;;;;;;4998381;28;20238;-69
2023/04/16 13:14:55;;;;;;;6.97;5.87;;;;;;;;;;5025420;28;20187;-69
2023/04/16 13:17:22;;;;;;;7.03;6.33;;;;;;;;;;5025658;28;20202;-69
2023/04/16 13:19:49;;;;;;;7.23;6.27;;;;;;;;;;5007910;28;20180;-69
2023/04/16 13:22:19;;;;;;;8.57;6.93;;;;;;;;;;5020643;28;20211;-67
2023/04/16 13:24:46;;;;;;;6.57;5.80;;;;;;;;;;5007627;28;20179;-69
2023/04/16 13:27:14;;;;;;;7.17;6.47;;;;;;;;;;5025103;28;20282;-70
2023/04/16 13:29:43;;;;;;;8.00;6.10;;;;;;;;;;5010366;28;20206;-68
2023/04/16 13:32:12;;;;;;;6.83;5.80;;;;;;;;;;5016820;28;20241;-69
2023/04/16 13:34:42;;;;;;;6.37;5.53;;;;;;;;;;5023450;28;20653;-67
2023/04/16 13:37:09;;;;;;;6.53;5.70;;;;;;;;;;5006255;28;20195;-70
2023/04/16 13:39:36;;;;;;;7.40;6.37;;;;;;;;;;5023103;28;20245;-67
2023/04/16 13:42:42;;;;;;;8.67;6.63;;;;;;;;;;5024272;28;20814;-67
2023/04/16 13:46:25;;;;;;;;;;;;;;;;;;;;;
2023/04/16 13:54:02;;;;;;;7.63;6.43;;;;;;;;;;4894130;29;20226;-64
2023/04/16 14:01:04;;;;;;;9.73;7.23;;;;;;;;;;4914687;29;20248;-62
2023/04/16 14:03:36;;;;;;;10.40;7.20;;;;;;;;;;4937537;28;20206;-62
2023/04/16 14:06:03;;;;;;;11.07;7.73;;;;;;;;;;4940971;29;20198;-62
2023/04/16 14:08:30;;;;;;;10.17;7.23;;;;;;;;;;4946815;29;20198;-62
2023/04/16 14:10:57;;;;;;;8.93;6.53;;;;;;;;;;4946635;29;20285;-64
2023/04/16 14:13:25;;;;;;;10.37;7.07;;;;;;;;;;4946041;28;20304;-62
2023/04/16 14:15:54;;;;;;;10.10;7.20;;;;;;;;;;4946710;29;20984;-62
2023/04/16 14:18:21;;;;;;;10.83;7.37;;;;;;;;;;4947130;29;20214;-62
2023/04/16 14:20:49;;;;;;;11.50;7.63;;;;;;;;;;4931239;28;20217;-61
2023/04/16 14:23:16;;;;;;;11.27;8.10;;;;;;;;;;4949991;29;20225;-62
2023/04/16 14:25:43;;;;;;;10.40;7.53;;;;;;;;;;4950265;29;20253;-61
2023/04/16 14:28:10;;;;;;;8.80;7.33;;;;;;;;;;4933890;29;20237;-62
2023/04/16 14:30:42;;;;;;;13.23;7.83;;;;;;;;;;4998064;28;20227;-61
2023/04/16 14:33:09;;;;;;;9.67;7.57;;;;;;;;;;5030576;28;20633;-61
2023/04/16 14:35:37;;;;;;;10.83;7.80;;;;;;;;;;5030818;28;20191;-61
2023/04/16 14:38:03;;;;;;;11.73;7.70;;;;;;;;;;5030484;28;20290;-61
2023/04/16 14:40:30;;;;;;;10.87;8.20;;;;;;;;;;5030031;28;20261;-61
2023/04/16 14:42:57;;;;;;;9.93;7.83;;;;;;;;;;5030428;28;20190;-61
2023/04/16 14:45:26;;;;;;;10.67;7.37;;;;;;;;;;5030276;28;20690;-61
2023/04/16 14:47:52;;;;;;;11.00;8.37;;;;;;;;;;5030311;28;20195;-61
2023/04/16 14:50:20;;;;;;;11.10;8.40;;;;;;;;;;5030646;28;20291;-61
2023/04/16 14:52:47;;;;;;;10.97;7.87;;;;;;;;;;5029977;28;20206;-61
2023/04/16 14:55:14;;;;;;;10.63;8.00;;;;;;;;;;5030168;28;20195;-61
2023/04/16 14:57:41;;;;;;;10.80;7.87;;;;;;;;;;5032890;28;20195;-61
2023/04/16 15:00:10;;;;;;;11.13;7.87;;;;;;;;;;5033894;28;20714;-60
2023/04/16 15:02:37;;;;;;;9.50;7.53;;;;;;;;;;5030158;28;20194;-60
2023/04/16 15:05:06;;;;;;;9.57;7.70;;;;;;;;;;5029726;28;20195;-60
2023/04/16 15:07:33;;;;;;;10.20;8.27;;;;;;;;;;5029739;28;20307;-60
2023/04/16 15:10:01;;;;;;;10.67;7.27;;;;;;;;;;5030004;28;20206;-60
2023/04/16 15:12:29;;;;;;;10.07;7.33;;;;;;;;;;5018539;28;20219;-60
2023/04/16 15:14:58;;;;;;;9.53;7.00;;;;;;;;;;5028406;28;20239;-59
2023/04/16 15:17:25;;;;;;;13.17;7.50;;;;;;;;;;5029947;28;20191;-62
2023/04/16 15:19:54;;;;;;;7.83;6.50;;;;;;;;;;5029710;28;20242;-62
2023/04/16 15:22:21;;;;;;;10.60;7.07;;;;;;;;;;5012210;28;20495;-61